createdAt,value
2018-05-27T00:01:38.089Z,18.17
2018-05-27T00:04:04.892Z,19.20
2018-05-27T00:06:31.649Z,20.07
2018-05-27T00:08:58.439Z,17.57
2018-05-27T00:11:25.224Z,19.60
2018-05-27T00:13:52.042Z,24.40
2018-05-27T00:16:18.805Z,18.30
2018-05-27T00:18:45.582Z,21.10
2018-05-27T00:21:12.365Z,20.23
2018-05-27T00:23:39.600Z,24.80
2018-05-27T00:26:06.378Z,22.10
2018-05-27T00:28:33.139Z,23.17
2018-05-27T00:30:59.940Z,26.90
2018-05-27T00:33:26.701Z,24.80
2018-05-27T00:35:53.730Z,20.07
2018-05-27T00:38:20.497Z,21.20
2018-05-27T00:40:47.308Z,21.07
2018-05-27T00:43:14.205Z,27.43
2018-05-27T00:45:41.006Z,23.00
2018-05-27T00:48:07.788Z,24.43
2018-05-27T00:50:34.588Z,22.80
2018-05-27T00:53:01.375Z,38.03
2018-05-27T00:55:28.151Z,24.67
2018-05-27T00:57:55.735Z,26.97
2018-05-27T01:00:22.506Z,26.70
2018-05-27T01:02:49.279Z,21.30
2018-05-27T01:05:16.050Z,28.47
2018-05-27T01:07:42.816Z,23.50
2018-05-27T01:10:09.574Z,23.93
2018-05-27T01:12:36.351Z,27.60
2018-05-27T01:15:03.114Z,27.93
2018-05-27T01:17:29.928Z,22.87
2018-05-27T01:19:56.686Z,23.77
2018-05-27T01:22:23.494Z,21.73
2018-05-27T01:24:50.241Z,24.87
2018-05-27T01:27:17.021Z,22.00
2018-05-27T01:29:43.761Z,27.67
2018-05-27T01:32:10.575Z,18.47
2018-05-27T01:34:37.343Z,27.43
2018-05-27T01:37:04.109Z,22.70
2018-05-27T01:39:30.849Z,25.00
2018-05-27T01:41:57.633Z,26.33
2018-05-27T01:44:24.406Z,33.73
2018-05-27T01:46:51.204Z,22.07
2018-05-27T01:49:18.001Z,30.47
2018-05-27T01:51:44.797Z,22.67
2018-05-27T01:54:11.538Z,25.50
2018-05-27T01:56:38.303Z,22.37
2018-05-27T01:59:05.105Z,22.03
2018-05-27T02:01:31.881Z,21.37
2018-05-27T02:03:58.655Z,21.97
2018-05-27T02:06:26.045Z,19.83
2018-05-27T02:08:52.840Z,20.63
2018-05-27T02:11:19.976Z,23.83
2018-05-27T02:13:46.764Z,25.67
2018-05-27T02:16:13.519Z,25.13
2018-05-27T02:18:40.316Z,27.03
2018-05-27T02:21:07.082Z,18.90
2018-05-27T02:23:33.848Z,24.97
2018-05-27T02:26:00.641Z,22.20
2018-05-27T02:28:28.126Z,25.93
2018-05-27T02:30:54.874Z,22.80
2018-05-27T02:33:21.666Z,30.00
2018-05-27T02:35:48.434Z,23.70
2018-05-27T02:38:15.271Z,28.87
2018-05-27T02:40:42.088Z,27.00
2018-05-27T02:43:08.863Z,20.70
2018-05-27T02:45:35.623Z,31.00
2018-05-27T02:48:02.417Z,25.77
2018-05-27T02:50:29.174Z,25.90
2018-05-27T02:52:55.912Z,29.43
2018-05-27T02:55:22.716Z,29.73
2018-05-27T02:57:49.482Z,24.00
2018-05-27T03:00:16.226Z,22.47
2018-05-27T03:02:43.033Z,23.27
2018-05-27T03:05:09.789Z,19.80
2018-05-27T03:07:36.869Z,27.70
2018-05-27T03:10:03.672Z,18.63
2018-05-27T03:12:30.416Z,24.97
2018-05-27T03:14:57.183Z,21.67
2018-05-27T03:17:23.984Z,22.47
2018-05-27T03:19:50.763Z,18.80
2018-05-27T03:22:17.522Z,20.07
2018-05-27T03:24:44.328Z,20.40
2018-05-27T03:27:11.092Z,21.47
2018-05-27T03:29:37.856Z,18.83
2018-05-27T03:32:04.645Z,17.23
2018-05-27T03:34:31.415Z,24.90
2018-05-27T03:36:58.191Z,21.40
2018-05-27T03:39:24.997Z,18.70
2018-05-27T03:41:51.760Z,17.87
2018-05-27T03:44:18.543Z,17.20
2018-05-27T03:46:45.342Z,23.80
2018-05-27T03:49:12.091Z,16.93
2018-05-27T03:51:38.840Z,25.30
2018-05-27T03:54:06.329Z,14.60
2018-05-27T03:56:33.109Z,15.63
2018-05-27T03:58:59.856Z,17.50
2018-05-27T04:01:26.671Z,17.73
2018-05-27T04:03:59.104Z,17.27
2018-05-27T04:06:31.680Z,16.53
2018-05-27T04:08:58.474Z,18.03
2018-05-27T04:11:25.244Z,20.17
2018-05-27T04:13:52.035Z,17.77
2018-05-27T04:16:19.420Z,16.00
2018-05-27T04:18:46.184Z,18.10
2018-05-27T04:21:12.989Z,13.73
2018-05-27T04:23:39.764Z,11.77
2018-05-27T04:26:06.511Z,13.73
2018-05-27T04:28:33.377Z,12.13
2018-05-27T04:31:00.112Z,14.10
2018-05-27T04:33:26.871Z,12.50
2018-05-27T04:35:53.653Z,15.87
2018-05-27T04:38:20.700Z,13.20
2018-05-27T04:40:47.437Z,13.97
2018-05-27T04:43:14.231Z,13.33
2018-05-27T04:45:41.009Z,12.87
2018-05-27T04:48:07.774Z,19.37
2018-05-27T04:50:34.545Z,14.83
2018-05-27T04:53:01.292Z,12.43
2018-05-27T04:55:28.064Z,14.90
2018-05-27T04:57:54.836Z,11.70
2018-05-27T05:00:21.583Z,17.97
2018-05-27T05:02:48.659Z,12.60
2018-05-27T05:05:15.461Z,8.10
2018-05-27T05:07:42.255Z,12.03
2018-05-27T05:10:09.016Z,11.53
2018-05-27T05:12:35.793Z,10.40
2018-05-27T05:15:02.534Z,9.83
2018-05-27T05:17:29.290Z,16.90
2018-05-27T05:19:56.852Z,11.00
2018-05-27T05:22:23.596Z,11.67
2018-05-27T05:24:50.353Z,13.60
2018-05-27T05:27:17.145Z,10.67
2018-05-27T05:29:43.911Z,12.77
2018-05-27T05:32:10.648Z,11.47
2018-05-27T05:34:37.454Z,11.83
2018-05-27T05:37:04.220Z,11.53
2018-05-27T05:39:30.968Z,13.07
2018-05-27T05:41:57.751Z,12.30
2018-05-27T05:44:24.516Z,13.33
2018-05-27T05:46:51.317Z,13.13
2018-05-27T05:49:18.134Z,15.90
2018-05-27T05:51:44.906Z,8.73
2018-05-27T05:54:11.650Z,15.00
2018-05-27T05:56:38.429Z,15.13
2018-05-27T05:59:05.206Z,12.13
2018-05-27T06:01:31.949Z,12.90
2018-05-27T06:03:58.756Z,15.57
2018-05-27T06:06:25.509Z,12.60
2018-05-27T06:08:52.949Z,9.97
2018-05-27T06:11:19.725Z,9.93
2018-05-27T06:13:46.491Z,16.23
2018-05-27T06:16:13.238Z,9.97
2018-05-27T06:18:40.730Z,10.93
2018-05-27T06:21:07.530Z,8.60
2018-05-27T06:23:34.292Z,15.57
2018-05-27T06:26:01.078Z,10.37
2018-05-27T06:28:28.479Z,10.27
2018-05-27T06:30:55.252Z,10.63
2018-05-27T06:33:22.072Z,14.43
2018-05-27T06:35:49.615Z,12.73
2018-05-27T06:38:16.369Z,12.90
2018-05-27T06:40:43.161Z,14.77
2018-05-27T06:43:10.484Z,14.90
2018-05-27T06:45:37.229Z,16.13
2018-05-27T06:48:04.035Z,17.97
2018-05-27T06:50:30.789Z,14.83
2018-05-27T06:52:57.549Z,17.60
2018-05-27T06:55:24.361Z,18.20
2018-05-27T06:57:51.143Z,16.43
2018-05-27T07:00:17.907Z,14.50
2018-05-27T07:02:44.720Z,14.83
2018-05-27T07:05:11.505Z,13.13
2018-05-27T07:07:38.339Z,15.37
2018-05-27T07:10:05.140Z,14.77
2018-05-27T07:12:31.888Z,12.70
2018-05-27T07:14:58.652Z,17.70
2018-05-27T07:17:25.467Z,9.40
2018-05-27T07:19:52.223Z,13.90
2018-05-27T07:22:19.591Z,10.60
2018-05-27T07:24:46.394Z,12.50
2018-05-27T07:27:13.843Z,16.80
2018-05-27T07:29:40.615Z,16.70
2018-05-27T07:32:07.391Z,17.37
2018-05-27T07:34:34.993Z,14.90
2018-05-27T07:37:01.752Z,16.90
2018-05-27T07:39:28.560Z,23.70
2018-05-27T07:41:55.347Z,12.50
2018-05-27T07:44:22.111Z,15.07
2018-05-27T07:46:48.911Z,11.30
2018-05-27T07:49:15.685Z,10.53
2018-05-27T07:51:42.442Z,9.77
2018-05-27T07:54:09.252Z,11.47
2018-05-27T07:56:36.032Z,11.30
2018-05-27T07:59:02.798Z,12.50
2018-05-27T08:01:29.604Z,11.10
2018-05-27T08:03:56.390Z,15.17
2018-05-27T08:06:23.629Z,9.70
2018-05-27T08:08:50.428Z,17.90
2018-05-27T08:11:17.168Z,14.70
2018-05-27T08:13:44.697Z,9.97
2018-05-27T08:16:11.486Z,7.30
2018-05-27T08:18:38.254Z,11.57
2018-05-27T08:21:05.025Z,14.33
2018-05-27T08:23:31.806Z,9.50
2018-05-27T08:25:58.553Z,10.83
2018-05-27T08:28:25.316Z,9.40
2018-05-27T08:30:52.117Z,17.90
2018-05-27T08:33:18.879Z,10.90
2018-05-27T08:35:45.659Z,7.80
2018-05-27T08:38:12.463Z,15.30
2018-05-27T08:40:39.196Z,12.53
2018-05-27T08:43:05.960Z,10.90
2018-05-27T08:45:32.778Z,10.97
2018-05-27T08:47:59.557Z,12.33
2018-05-27T08:50:26.742Z,9.17
2018-05-27T08:52:53.541Z,8.17
2018-05-27T08:55:20.282Z,7.20
2018-05-27T08:57:47.068Z,10.17
2018-05-27T09:00:13.872Z,10.03
2018-05-27T09:02:40.626Z,8.30
2018-05-27T09:05:08.079Z,9.20
2018-05-27T09:07:34.868Z,8.20
2018-05-27T09:10:01.697Z,7.90
2018-05-27T09:12:29.062Z,8.50
2018-05-27T09:14:55.837Z,7.90
2018-05-27T09:17:22.582Z,6.27
2018-05-27T09:19:49.324Z,11.97
2018-05-27T09:22:16.137Z,7.80
2018-05-27T09:24:42.878Z,7.23
2018-05-27T09:27:09.624Z,5.90
2018-05-27T09:29:36.412Z,7.30
2018-05-27T09:32:03.521Z,6.97
2018-05-27T09:34:30.301Z,7.37
2018-05-27T09:36:57.112Z,7.53
2018-05-27T09:39:23.871Z,8.17
2018-05-27T09:41:50.618Z,6.37
2018-05-27T09:44:17.411Z,7.70
2018-05-27T09:46:44.149Z,7.90
2018-05-27T09:49:10.893Z,6.30
2018-05-27T09:51:37.684Z,7.43
2018-05-27T09:54:04.428Z,8.80
2018-05-27T09:56:31.189Z,6.40
2018-05-27T09:58:57.992Z,7.03
2018-05-27T10:01:24.734Z,8.43
2018-05-27T10:03:51.772Z,9.30
2018-05-27T10:06:18.563Z,8.30
2018-05-27T10:08:45.422Z,10.70
2018-05-27T10:11:12.188Z,11.60
2018-05-27T10:13:38.963Z,9.43
2018-05-27T10:16:05.729Z,12.43
2018-05-27T10:18:33.180Z,7.90
2018-05-27T10:20:59.964Z,12.93
2018-05-27T10:23:26.730Z,11.60
2018-05-27T10:25:53.506Z,14.77
2018-05-27T10:28:20.315Z,12.90
2018-05-27T10:30:47.074Z,13.13
2018-05-27T10:33:13.853Z,10.03
2018-05-27T10:35:40.878Z,8.63
2018-05-27T10:38:08.639Z,9.67
2018-05-27T10:40:35.423Z,10.77
2018-05-27T10:43:02.841Z,11.07
2018-05-27T10:45:30.223Z,10.53
2018-05-27T10:47:57.074Z,10.17
2018-05-27T10:50:24.137Z,10.30
2018-05-27T10:52:50.903Z,10.17
2018-05-27T10:55:17.679Z,10.80
2018-05-27T10:57:44.466Z,9.13
2018-05-27T11:00:11.217Z,10.80
2018-05-27T11:02:37.972Z,10.10
2018-05-27T11:05:04.776Z,13.20
2018-05-27T11:07:31.552Z,10.70
2018-05-27T11:09:58.297Z,12.80
2018-05-27T11:12:25.087Z,11.30
2018-05-27T11:14:51.868Z,12.83
2018-05-27T11:17:18.760Z,15.20
2018-05-27T11:19:46.476Z,14.43
2018-05-27T11:22:13.236Z,13.17
2018-05-27T11:24:39.980Z,13.90
2018-05-27T11:27:06.761Z,10.00
2018-05-27T11:29:34.219Z,13.37
2018-05-27T11:32:00.988Z,14.27
2018-05-27T11:34:27.781Z,14.97
2018-05-27T11:36:54.775Z,12.33
2018-05-27T11:39:21.520Z,10.33
2018-05-27T11:41:48.320Z,14.30
2018-05-27T11:44:15.083Z,14.43
2018-05-27T11:46:41.867Z,12.47
2018-05-27T11:49:08.674Z,17.83
2018-05-27T11:51:35.441Z,14.50
2018-05-27T11:54:02.208Z,13.20
2018-05-27T11:56:29.083Z,14.47
2018-05-27T11:58:55.863Z,17.83
2018-05-27T12:01:22.600Z,15.93
2018-05-27T12:03:50.124Z,13.03
2018-05-27T12:06:16.864Z,11.90
2018-05-27T12:08:44.256Z,13.50
2018-05-27T12:11:11.101Z,10.83
2018-05-27T12:13:37.846Z,10.60
2018-05-27T12:16:04.847Z,14.83
2018-05-27T12:18:31.680Z,13.03
2018-05-27T12:20:59.224Z,12.43
2018-05-27T12:23:26.010Z,9.40
2018-05-27T12:25:52.793Z,12.90
2018-05-27T12:28:19.561Z,14.87
2018-05-27T12:30:46.320Z,12.83
2018-05-27T12:33:13.110Z,12.33
2018-05-27T12:35:39.845Z,11.60
2018-05-27T12:38:06.619Z,12.43
2018-05-27T12:40:33.411Z,11.53
2018-05-27T12:43:00.157Z,14.93
2018-05-27T12:45:27.253Z,9.97
2018-05-27T12:47:54.036Z,9.70
2018-05-27T12:50:20.800Z,13.10
2018-05-27T12:52:47.593Z,9.33
2018-05-27T12:55:14.448Z,10.60
2018-05-27T12:57:41.224Z,10.83
2018-05-27T13:00:08.039Z,12.43
2018-05-27T13:02:34.825Z,11.13
2018-05-27T13:05:01.596Z,14.23
2018-05-27T13:07:28.349Z,9.63
2018-05-27T13:09:55.126Z,10.53
2018-05-27T13:12:21.889Z,10.03
2018-05-27T13:14:48.680Z,10.73
2018-05-27T13:17:15.525Z,10.37
2018-05-27T13:19:42.273Z,11.20
2018-05-27T13:22:09.041Z,16.10
2018-05-27T13:24:35.836Z,12.53
2018-05-27T13:27:03.290Z,11.10
2018-05-27T13:29:30.040Z,13.30
2018-05-27T13:31:56.844Z,14.27
2018-05-27T13:34:23.597Z,12.93
2018-05-27T13:36:50.366Z,10.57
2018-05-27T13:39:17.166Z,13.23
2018-05-27T13:41:43.935Z,12.50
2018-05-27T13:44:10.700Z,15.80
2018-05-27T13:46:37.507Z,16.43
2018-05-27T13:49:04.270Z,12.00
2018-05-27T13:51:31.032Z,15.80
2018-05-27T13:53:57.851Z,14.57
2018-05-27T13:56:24.597Z,12.33
2018-05-27T13:58:51.364Z,16.67
2018-05-27T14:01:18.143Z,11.70
2018-05-27T14:03:44.925Z,13.93
2018-05-27T14:06:11.724Z,12.97
2018-05-27T14:08:38.499Z,11.27
2018-05-27T14:11:05.257Z,16.33
2018-05-27T14:13:32.002Z,11.03
2018-05-27T14:15:58.933Z,11.27
2018-05-27T14:18:25.700Z,10.13
2018-05-27T14:20:52.468Z,12.70
2018-05-27T14:23:19.280Z,11.43
2018-05-27T14:25:46.097Z,11.50
2018-05-27T14:28:12.884Z,7.30
2018-05-27T14:30:39.676Z,8.00
2018-05-27T14:33:07.183Z,9.40
2018-05-27T14:35:33.981Z,9.00
2018-05-27T14:38:00.805Z,10.47
2018-05-27T14:40:27.787Z,11.33
2018-05-27T14:42:54.545Z,8.33
2018-05-27T14:45:21.361Z,10.67
2018-05-27T14:47:48.103Z,9.20
2018-05-27T14:50:14.863Z,9.60
2018-05-27T14:52:41.666Z,11.63
2018-05-27T14:55:08.419Z,9.27
2018-05-27T14:57:35.205Z,13.33
2018-05-27T15:00:02.003Z,9.90
2018-05-27T15:02:28.768Z,13.47
2018-05-27T15:04:55.554Z,11.77
2018-05-27T15:07:22.355Z,12.40
2018-05-27T15:09:49.106Z,13.43
2018-05-27T15:12:15.921Z,13.23
2018-05-27T15:14:42.727Z,11.27
2018-05-27T15:17:09.489Z,17.03
2018-05-27T15:19:36.950Z,12.97
2018-05-27T15:22:03.744Z,13.77
2018-05-27T15:24:30.512Z,14.27
2018-05-27T15:26:57.955Z,14.10
2018-05-27T15:29:24.784Z,12.33
2018-05-27T15:31:51.574Z,11.57
2018-05-27T15:34:18.325Z,11.97
2018-05-27T15:36:45.101Z,14.20
2018-05-27T15:39:11.879Z,10.77
2018-05-27T15:41:38.641Z,11.87
2018-05-27T15:44:05.459Z,12.00
2018-05-27T15:46:32.231Z,10.50
2018-05-27T15:48:58.996Z,12.33
2018-05-27T15:51:25.766Z,13.03
2018-05-27T15:53:52.539Z,13.80
2018-05-27T15:56:19.293Z,15.07
2018-05-27T15:58:46.073Z,12.90
2018-05-27T16:01:12.825Z,11.47
2018-05-27T16:03:39.596Z,11.23
2018-05-27T16:06:06.378Z,15.40
2018-05-27T16:08:33.129Z,11.60
2018-05-27T16:11:00.162Z,13.27
2018-05-27T16:13:26.945Z,9.63
2018-05-27T16:15:53.725Z,11.73
2018-05-27T16:18:20.497Z,12.77
2018-05-27T16:20:47.363Z,10.00
2018-05-27T16:23:14.821Z,12.00
2018-05-27T16:25:41.620Z,11.37
2018-05-27T16:28:08.431Z,11.23
2018-05-27T16:30:35.795Z,10.97
2018-05-27T16:33:02.568Z,13.10
2018-05-27T16:35:29.356Z,12.60
2018-05-27T16:37:56.148Z,11.27
2018-05-27T16:40:22.897Z,14.23
2018-05-27T16:42:49.695Z,16.63
2018-05-27T16:45:17.060Z,15.97
2018-05-27T16:47:43.813Z,21.50
2018-05-27T16:50:10.625Z,13.53
2018-05-27T16:52:37.407Z,17.10
2018-05-27T16:55:04.158Z,15.17
2018-05-27T16:57:30.984Z,15.73
2018-05-27T16:59:57.737Z,18.33
2018-05-27T17:02:24.724Z,19.37
2018-05-27T17:04:51.527Z,17.70
2018-05-27T17:07:18.393Z,18.47
2018-05-27T17:09:45.514Z,16.33
2018-05-27T17:12:12.940Z,21.90
2018-05-27T17:14:40.676Z,20.67
2018-05-27T17:17:07.452Z,18.77
2018-05-27T17:19:34.230Z,17.17
2018-05-27T17:22:00.969Z,15.67
2018-05-27T17:24:27.725Z,17.47
2018-05-27T17:26:54.536Z,12.70
2018-05-27T17:29:21.921Z,14.10
2018-05-27T17:31:48.665Z,14.67
2018-05-27T17:34:15.469Z,16.47
2018-05-27T17:36:42.214Z,15.90
2018-05-27T17:39:08.969Z,20.60
2018-05-27T17:41:35.754Z,16.50
2018-05-27T17:44:03.500Z,22.57
2018-05-27T17:46:30.258Z,19.27
2018-05-27T17:48:57.069Z,24.50
2018-05-27T17:51:23.822Z,24.27
2018-05-27T17:53:50.581Z,22.57
2018-05-27T17:56:17.389Z,19.50
2018-05-27T17:58:44.145Z,23.03
2018-05-27T18:01:10.933Z,18.93
2018-05-27T18:03:37.725Z,23.63
2018-05-27T18:06:04.610Z,19.67
2018-05-27T18:08:31.388Z,21.90
2018-05-27T18:10:58.941Z,19.03
2018-05-27T18:13:25.716Z,20.87
2018-05-27T18:15:52.466Z,25.67
2018-05-27T18:18:19.266Z,21.90
2018-05-27T18:20:46.057Z,19.47
2018-05-27T18:23:12.859Z,20.50
2018-05-27T18:25:39.636Z,21.23
2018-05-27T18:28:06.881Z,17.43
2018-05-27T18:30:33.633Z,19.07
2018-05-27T18:33:00.422Z,21.37
2018-05-27T18:35:27.198Z,18.03
2018-05-27T18:37:53.961Z,24.03
2018-05-27T18:40:20.812Z,15.80
2018-05-27T18:42:47.596Z,19.77
2018-05-27T18:45:14.351Z,20.50
2018-05-27T18:47:41.148Z,22.60
2018-05-27T18:50:07.940Z,20.50
2018-05-27T18:52:34.720Z,24.57
2018-05-27T18:55:01.553Z,27.00
2018-05-27T18:57:28.809Z,28.30
2018-05-27T18:59:56.103Z,27.33
2018-05-27T19:02:23.711Z,32.27
2018-05-27T19:04:50.471Z,28.70
2018-05-27T19:07:17.970Z,26.33
2018-05-27T19:09:44.784Z,27.33
2018-05-27T19:12:11.558Z,26.77
2018-05-27T19:14:38.412Z,21.73
2018-05-27T19:17:05.314Z,26.83
2018-05-27T19:19:32.091Z,29.00
2018-05-27T19:21:58.842Z,26.03
2018-05-27T19:24:26.015Z,28.20
2018-05-27T19:26:52.814Z,26.03
2018-05-27T19:29:19.577Z,32.63
2018-05-27T19:31:46.381Z,23.93
2018-05-27T19:34:13.152Z,26.03
2018-05-27T19:36:40.053Z,33.53
2018-05-27T19:39:06.874Z,36.77
2018-05-27T19:41:33.682Z,42.13
2018-05-27T19:44:00.448Z,37.57
2018-05-27T19:46:28.224Z,28.57
2018-05-27T19:48:55.325Z,35.57
2018-05-27T19:51:22.119Z,40.23
2018-05-27T19:53:48.939Z,27.07
2018-05-27T19:56:15.692Z,38.87
2018-05-27T19:58:42.611Z,33.67
2018-05-27T20:01:09.477Z,28.33
2018-05-27T20:03:36.541Z,37.93
2018-05-27T20:06:03.338Z,34.80
2018-05-27T20:08:30.286Z,38.87
2018-05-27T20:10:57.123Z,39.83
2018-05-27T20:13:23.913Z,38.90
2018-05-27T20:15:50.696Z,32.57
2018-05-27T20:18:17.483Z,26.30
2018-05-27T20:20:44.289Z,36.13
2018-05-27T20:23:11.194Z,33.70
2018-05-27T20:25:37.993Z,33.07
2018-05-27T20:28:04.755Z,27.87
2018-05-27T20:30:31.596Z,27.33
2018-05-27T20:32:58.358Z,35.40
2018-05-27T20:35:25.343Z,23.53
2018-05-27T20:37:52.136Z,22.30
2018-05-27T20:40:18.929Z,21.77
2018-05-27T20:42:45.712Z,32.33
2018-05-27T20:45:12.537Z,39.00
2018-05-27T20:47:39.290Z,24.83
2018-05-27T20:50:06.072Z,27.83
2018-05-27T20:52:32.882Z,52.10
2018-05-27T20:54:59.649Z,36.63
2018-05-27T20:57:26.669Z,23.07
2018-05-27T20:59:54.079Z,31.77
2018-05-27T21:02:21.179Z,29.60
2018-05-27T21:04:47.951Z,35.17
2018-05-27T21:07:14.770Z,30.63
2018-05-27T21:09:41.552Z,30.80
2018-05-27T21:12:08.329Z,25.70
2018-05-27T21:14:35.148Z,23.13
2018-05-27T21:17:01.921Z,23.30
2018-05-27T21:19:28.721Z,27.23
2018-05-27T21:21:55.525Z,29.40
2018-05-27T21:24:22.302Z,38.10
2018-05-27T21:26:49.085Z,23.00
2018-05-27T21:29:15.889Z,23.70
2018-05-27T21:31:42.629Z,21.30
2018-05-27T21:34:09.421Z,18.23
2018-05-27T21:36:36.835Z,18.33
2018-05-27T21:39:03.648Z,21.03
2018-05-27T21:41:30.560Z,22.73
2018-05-27T21:43:57.367Z,23.93
2018-05-27T21:46:24.127Z,29.50
2018-05-27T21:48:50.899Z,21.97
2018-05-27T21:51:17.686Z,23.30
2018-05-27T21:53:44.459Z,24.10
2018-05-27T21:56:11.229Z,22.80
2018-05-27T21:58:38.057Z,24.90
2018-05-27T22:01:05.461Z,26.10
2018-05-27T22:03:32.212Z,17.30
2018-05-27T22:05:59.030Z,22.37
2018-05-27T22:08:25.793Z,25.80
2018-05-27T22:10:52.564Z,36.37
2018-05-27T22:13:19.376Z,14.37
2018-05-27T22:15:46.117Z,18.20
2018-05-27T22:18:12.875Z,24.00
2018-05-27T22:20:40.419Z,22.10
2018-05-27T22:23:07.192Z,23.27
2018-05-27T22:25:33.945Z,22.13
2018-05-27T22:28:00.772Z,22.00
2018-05-27T22:30:27.517Z,28.30
2018-05-27T22:32:54.265Z,19.20
2018-05-27T22:35:21.080Z,30.10
2018-05-27T22:37:47.830Z,30.63
2018-05-27T22:40:14.638Z,29.73
2018-05-27T22:42:41.417Z,26.03
2018-05-27T22:45:08.188Z,22.23
2018-05-27T22:47:34.987Z,28.53
2018-05-27T22:50:01.761Z,24.50
2018-05-27T22:52:28.558Z,27.57
2018-05-27T22:54:55.323Z,29.60
2018-05-27T22:57:22.145Z,29.67
2018-05-27T22:59:48.911Z,25.73
2018-05-27T23:02:15.656Z,27.50
2018-05-27T23:04:42.463Z,31.73
2018-05-27T23:07:09.246Z,27.97
2018-05-27T23:09:36.048Z,29.80
2018-05-27T23:12:02.847Z,25.43
2018-05-27T23:14:29.605Z,31.30
2018-05-27T23:16:57.096Z,29.83
2018-05-27T23:19:23.892Z,27.60
2018-05-27T23:21:50.650Z,24.53
2018-05-27T23:24:17.443Z,25.87
2018-05-27T23:26:44.230Z,39.23
2018-05-27T23:29:11.817Z,33.87
2018-05-27T23:31:38.565Z,30.47
2018-05-27T23:34:05.343Z,32.50
2018-05-27T23:36:32.089Z,28.10
2018-05-27T23:38:58.857Z,32.93
2018-05-27T23:41:25.668Z,33.30
2018-05-27T23:43:52.432Z,22.33
2018-05-27T23:46:19.215Z,31.23
2018-05-27T23:48:45.991Z,31.57
2018-05-27T23:51:12.735Z,32.23
2018-05-27T23:53:39.500Z,28.83
2018-05-27T23:56:06.310Z,24.70
2018-05-27T23:58:33.089Z,24.93
